Time;durP1;ratioP1;P1;durP2;ratioP2;P2;SDS_P1;SDS_P2;PMS_P1;PMS_P2;Temp;Humidity;BMP_temperature;BMP_pressure;BME280_temperature;BME280_humidity;BME280_pressure;Samples;Min_cycle;Max_cycle;Signal;HPM_P1;HPM_P2
2024/01/07 00:00:18;;;;;;;0.00;0.00;;;5.70;99.90;;;;;;5050452;28;20178;-67
2024/01/07 00:02:43;;;;;;;0.00;0.00;;;5.70;99.90;;;;;;5050092;28;20177;-67
2024/01/07 00:05:09;;;;;;;0.08;0.08;;;5.80;99.90;;;;;;5051739;28;20205;-67
2024/01/07 00:07:34;;;;;;;0.10;0.10;;;5.70;99.90;;;;;;5053676;28;20206;-68
2024/01/07 00:10:00;;;;;;;0.30;0.30;;;5.70;99.90;;;;;;5053739;28;20203;-69
2024/01/07 00:12:25;;;;;;;0.00;0.00;;;5.70;99.90;;;;;;5053735;28;20193;-67
2024/01/07 00:14:51;;;;;;;0.00;0.00;;;5.80;99.90;;;;;;5052689;28;20181;-67
2024/01/07 00:17:16;;;;;;;0.00;0.00;;;5.70;99.90;;;;;;5052891;28;20221;-67
2024/01/07 00:19:42;;;;;;;0.00;0.00;;;5.70;99.90;;;;;;5035918;28;20204;-68
2024/01/07 00:22:07;;;;;;;0.00;0.00;;;5.70;99.90;;;;;;5053381;28;20499;-68
2024/01/07 00:24:33;;;;;;;0.00;0.00;;;5.70;99.90;;;;;;5053516;28;20178;-68
2024/01/07 00:26:58;;;;;;;0.00;0.00;;;5.70;99.90;;;;;;5053350;28;20601;-69
2024/01/07 00:29:24;;;;;;;0.00;0.00;;;5.70;99.90;;;;;;5052060;28;20238;-68
2024/01/07 00:31:49;;;;;;;0.00;0.00;;;5.70;99.90;;;;;;5052963;28;20174;-68
2024/01/07 00:34:15;;;;;;;0.00;0.00;;;5.70;99.90;;;;;;5053318;28;20173;-69
2024/01/07 00:36:40;;;;;;;0.00;0.00;;;5.70;99.90;;;;;;5053072;28;20695;-69
2024/01/07 00:39:06;;;;;;;0.00;0.00;;;5.60;99.90;;;;;;5053150;28;20190;-69
2024/01/07 00:41:31;;;;;;;0.08;0.05;;;5.70;99.90;;;;;;5052824;28;20279;-69
2024/01/07 00:43:57;;;;;;;0.00;0.00;;;5.60;99.90;;;;;;5052993;28;20181;-69
2024/01/07 00:46:22;;;;;;;0.10;0.10;;;5.60;99.90;;;;;;5053087;28;20215;-68
2024/01/07 00:48:48;;;;;;;0.00;0.00;;;5.70;99.90;;;;;;5051476;28;20192;-68
2024/01/07 00:51:14;;;;;;;0.00;0.00;;;5.60;99.90;;;;;;5052783;28;20186;-68
2024/01/07 00:53:39;;;;;;;0.00;0.00;;;5.70;99.90;;;;;;5052639;28;20185;-67
2024/01/07 00:56:05;;;;;;;0.00;0.00;;;5.70;99.90;;;;;;5051289;28;20240;-69
2024/01/07 00:58:31;;;;;;;0.00;0.00;;;5.60;99.90;;;;;;5052595;28;20189;-69
2024/01/07 01:00:57;;;;;;;0.00;0.00;;;5.70;99.90;;;;;;5052706;28;20184;-68
2024/01/07 01:03:23;;;;;;;0.00;0.00;;;5.60;99.90;;;;;;5052487;28;20260;-68
2024/01/07 01:05:48;;;;;;;0.00;0.00;;;5.70;99.90;;;;;;5052521;28;20173;-68
2024/01/07 01:08:14;;;;;;;0.50;0.50;;;5.70;99.90;;;;;;5052521;28;20181;-69
2024/01/07 01:10:39;;;;;;;0.00;0.00;;;5.60;99.90;;;;;;5050875;28;20192;-68
2024/01/07 01:13:05;;;;;;;0.00;0.00;;;5.60;99.90;;;;;;5051285;28;20525;-68
2024/01/07 01:15:30;;;;;;;0.00;0.00;;;5.60;99.90;;;;;;5050839;28;20212;-69
2024/01/07 01:17:56;;;;;;;0.00;0.00;;;5.60;99.90;;;;;;5051783;28;20249;-68
2024/01/07 01:20:21;;;;;;;0.00;0.00;;;5.60;99.90;;;;;;5051157;28;20177;-69
2024/01/07 01:22:47;;;;;;;0.00;0.00;;;5.60;99.90;;;;;;5052107;28;20182;-68
2024/01/07 01:25:12;;;;;;;0.00;0.00;;;5.60;99.90;;;;;;5051878;28;20192;-68
2024/01/07 01:27:38;;;;;;;0.00;0.00;;;5.60;99.90;;;;;;5052251;28;20181;-70
2024/01/07 01:30:04;;;;;;;0.00;0.00;;;5.60;99.90;;;;;;5052022;28;20264;-68
2024/01/07 01:32:29;;;;;;;0.00;0.00;;;5.60;99.90;;;;;;5052214;28;20569;-68
2024/01/07 01:34:55;;;;;;;0.08;0.08;;;5.60;99.90;;;;;;5051991;28;20173;-68
2024/01/07 01:37:20;;;;;;;0.00;0.00;;;5.60;99.90;;;;;;5051807;28;20213;-68
2024/01/07 01:39:46;;;;;;;0.00;0.00;;;5.60;99.90;;;;;;5051518;28;20726;-68
2024/01/07 01:42:11;;;;;;;0.00;0.00;;;5.60;99.90;;;;;;5051819;28;20182;-68
2024/01/07 01:44:37;;;;;;;0.00;0.00;;;5.60;99.90;;;;;;5052072;28;20188;-68
2024/01/07 01:47:02;;;;;;;0.00;0.00;;;5.60;99.90;;;;;;5051888;28;20636;-68
2024/01/07 01:49:28;;;;;;;0.20;0.20;;;5.60;99.90;;;;;;5051491;28;20193;-68
2024/01/07 01:51:56;;;;;;;0.00;0.00;;;5.60;99.90;;;;;;5050133;28;20243;-69
2024/01/07 01:54:22;;;;;;;0.03;0.03;;;5.60;99.90;;;;;;5051805;28;20572;-68
2024/01/07 01:56:48;;;;;;;0.10;0.10;;;5.60;99.90;;;;;;5051582;28;20205;-68
2024/01/07 01:59:15;;;;;;;0.05;0.05;;;5.60;99.90;;;;;;5051614;28;20640;-69
2024/01/07 02:01:40;;;;;;;0.00;0.00;;;5.60;99.90;;;;;;5051967;28;20547;-69
2024/01/07 02:04:06;;;;;;;0.00;0.00;;;5.60;99.90;;;;;;5050320;28;20188;-70
2024/01/07 02:06:32;;;;;;;0.00;0.00;;;5.60;99.90;;;;;;5051625;28;20211;-69
2024/01/07 02:08:58;;;;;;;0.00;0.00;;;5.60;99.90;;;;;;5051786;28;20644;-69
2024/01/07 02:11:23;;;;;;;0.10;0.10;;;5.60;99.90;;;;;;5051589;28;20568;-67
2024/01/07 02:13:49;;;;;;;0.00;0.00;;;5.50;99.90;;;;;;5051507;28;20181;-68
2024/01/07 02:16:15;;;;;;;0.65;0.65;;;5.60;99.90;;;;;;5051702;28;20205;-68
2024/01/07 02:18:42;;;;;;;0.00;0.00;;;5.60;99.90;;;;;;5051296;28;20633;-68
2024/01/07 02:21:09;;;;;;;0.03;0.03;;;5.50;99.90;;;;;;5050342;28;20231;-67
2024/01/07 02:23:35;;;;;;;0.00;0.00;;;5.50;99.90;;;;;;5050078;28;20225;-67
2024/01/07 02:26:00;;;;;;;0.00;0.00;;;5.50;99.90;;;;;;5050168;28;20227;-68
2024/01/07 02:28:26;;;;;;;0.03;0.03;;;5.50;99.90;;;;;;5051036;28;20251;-68
2024/01/07 02:30:52;;;;;;;0.00;0.00;;;5.50;99.90;;;;;;5051477;28;20165;-68
2024/01/07 02:33:17;;;;;;;0.00;0.00;;;5.50;99.90;;;;;;5049740;28;20177;-69
2024/01/07 02:35:43;;;;;;;0.00;0.00;;;5.50;99.90;;;;;;5050531;28;20165;-68
2024/01/07 02:38:08;;;;;;;0.00;0.00;;;5.50;99.90;;;;;;5050764;28;20252;-68
2024/01/07 02:40:34;;;;;;;0.05;0.05;;;5.50;99.90;;;;;;5050471;28;20359;-69
2024/01/07 02:42:59;;;;;;;0.00;0.00;;;5.50;99.90;;;;;;5051028;28;20271;-68
2024/01/07 02:45:25;;;;;;;0.00;0.00;;;5.50;99.90;;;;;;5050861;28;20181;-68
2024/01/07 02:47:50;;;;;;;0.00;0.00;;;5.50;99.90;;;;;;5050598;28;20651;-69
2024/01/07 02:50:16;;;;;;;0.10;0.10;;;5.50;99.90;;;;;;5050791;28;20185;-70
2024/01/07 02:52:42;;;;;;;0.00;0.00;;;5.50;99.90;;;;;;5051448;28;20640;-68
2024/01/07 02:55:08;;;;;;;0.00;0.00;;;5.50;99.90;;;;;;5050571;28;20189;-68
2024/01/07 02:57:34;;;;;;;0.30;0.17;;;5.50;99.90;;;;;;5050473;28;20214;-68
2024/01/07 03:00:00;;;;;;;0.00;0.00;;;5.50;99.90;;;;;;5050455;28;20227;-69
2024/01/07 03:02:25;;;;;;;0.00;0.00;;;5.50;99.90;;;;;;5050570;28;20467;-69
2024/01/07 03:04:51;;;;;;;0.00;0.00;;;5.50;99.90;;;;;;5050490;28;20181;-69
2024/01/07 03:07:17;;;;;;;0.00;0.00;;;5.50;99.90;;;;;;5050382;28;20178;-69
2024/01/07 03:09:42;;;;;;;0.00;0.00;;;5.50;99.90;;;;;;5047899;28;20307;-69
2024/01/07 03:12:08;;;;;;;0.20;0.20;;;5.50;99.90;;;;;;5047325;28;20188;-69
2024/01/07 03:14:33;;;;;;;0.00;0.00;;;5.50;99.90;;;;;;5049045;28;20264;-69
2024/01/07 03:16:59;;;;;;;0.00;0.00;;;5.50;99.90;;;;;;5050158;28;20571;-69
2024/01/07 03:19:24;;;;;;;0.10;0.10;;;5.50;99.90;;;;;;5050384;28;20275;-70
2024/01/07 03:21:50;;;;;;;0.00;0.00;;;5.40;99.90;;;;;;5050236;28;20185;-69
2024/01/07 03:24:16;;;;;;;0.00;0.00;;;5.50;99.90;;;;;;5050264;28;20181;-68
2024/01/07 03:26:41;;;;;;;0.00;0.00;;;5.50;99.90;;;;;;5048891;28;20184;-68
2024/01/07 03:29:07;;;;;;;0.00;0.00;;;5.50;99.90;;;;;;5050374;28;20673;-69
2024/01/07 03:31:33;;;;;;;0.00;0.00;;;5.50;99.90;;;;;;5050095;28;20264;-69
2024/01/07 03:33:58;;;;;;;0.00;0.00;;;5.50;99.90;;;;;;5050186;28;20185;-69
2024/01/07 03:36:24;;;;;;;0.00;0.00;;;5.50;99.90;;;;;;5050242;28;20216;-69
2024/01/07 03:38:49;;;;;;;0.00;0.00;;;5.50;99.90;;;;;;5049056;28;20201;-69
2024/01/07 03:41:18;;;;;;;0.00;0.00;;;5.50;99.90;;;;;;5052455;28;20224;-68
2024/01/07 03:43:43;;;;;;;0.05;0.05;;;5.50;99.90;;;;;;5053741;28;20185;-68
2024/01/07 03:46:09;;;;;;;0.00;0.00;;;5.50;99.90;;;;;;5052948;28;20173;-69
2024/01/07 03:48:34;;;;;;;0.30;0.30;;;5.50;99.90;;;;;;5054027;28;20580;-68
2024/01/07 03:51:00;;;;;;;0.00;0.00;;;5.50;99.90;;;;;;5054117;28;20189;-69
2024/01/07 03:53:25;;;;;;;0.00;0.00;;;5.60;99.90;;;;;;5053615;28;20190;-69
2024/01/07 03:55:51;;;;;;;0.08;0.08;;;5.60;99.90;;;;;;5053582;28;20211;-69
2024/01/07 03:58:17;;;;;;;0.00;0.00;;;5.60;99.90;;;;;;5053881;28;20209;-69
2024/01/07 04:00:42;;;;;;;0.10;0.10;;;5.60;99.90;;;;;;5053817;28;20181;-69
2024/01/07 04:03:08;;;;;;;0.00;0.00;;;5.60;99.90;;;;;;5053868;28;20243;-69
2024/01/07 04:05:34;;;;;;;0.00;0.00;;;5.60;99.90;;;;;;5052424;28;20197;-69
2024/01/07 04:08:01;;;;;;;0.00;0.00;;;5.60;99.90;;;;;;5053671;28;20209;-68
2024/01/07 04:10:27;;;;;;;0.00;0.00;;;5.60;99.90;;;;;;5053518;28;20194;-69
2024/01/07 04:12:52;;;;;;;0.10;0.10;;;5.60;99.90;;;;;;5053558;28;20223;-69
2024/01/07 04:15:18;;;;;;;0.00;0.00;;;5.60;99.90;;;;;;5053517;28;20267;-68
2024/01/07 04:17:43;;;;;;;0.38;0.38;;;5.60;99.90;;;;;;5053025;28;20580;-68
2024/01/07 04:20:13;;;;;;;0.00;0.00;;;5.60;99.90;;;;;;5053546;28;20186;-70
2024/01/07 04:22:38;;;;;;;0.00;0.00;;;5.60;99.90;;;;;;5053458;28;20182;-68
2024/01/07 04:25:08;;;;;;;0.10;0.10;;;5.60;99.90;;;;;;5053519;28;20791;-69
2024/01/07 04:27:34;;;;;;;0.00;0.00;;;5.60;99.90;;;;;;5053150;28;20186;-69
2024/01/07 04:30:00;;;;;;;0.00;0.00;;;5.60;99.90;;;;;;5037649;28;20185;-69
2024/01/07 04:32:26;;;;;;;0.00;0.00;;;5.60;99.90;;;;;;5053288;28;20645;-70
2024/01/07 04:34:51;;;;;;;0.00;0.00;;;5.50;99.90;;;;;;5052113;28;20655;-69
2024/01/07 04:37:17;;;;;;;0.00;0.00;;;5.50;99.90;;;;;;5053128;28;20217;-69
2024/01/07 04:39:43;;;;;;;0.00;0.00;;;5.50;99.90;;;;;;5052756;28;20209;-69
2024/01/07 04:42:08;;;;;;;0.35;0.35;;;5.60;99.90;;;;;;5052732;28;20310;-68
2024/01/07 04:44:33;;;;;;;0.00;0.00;;;5.50;99.90;;;;;;5053226;28;20178;-69
2024/01/07 04:46:59;;;;;;;0.00;0.00;;;5.50;99.90;;;;;;5052885;28;20231;-68
2024/01/07 04:49:25;;;;;;;0.00;0.00;;;5.50;99.90;;;;;;5053099;28;20173;-68
2024/01/07 04:51:50;;;;;;;0.00;0.00;;;5.40;99.90;;;;;;5051249;28;20177;-69
2024/01/07 04:54:16;;;;;;;0.00;0.00;;;5.40;99.90;;;;;;5052979;28;20668;-69
2024/01/07 04:56:41;;;;;;;0.00;0.00;;;5.40;99.90;;;;;;5052575;28;20288;-68
2024/01/07 04:59:07;;;;;;;0.00;0.00;;;5.40;99.90;;;;;;5052758;28;20183;-69
2024/01/07 05:01:33;;;;;;;0.00;0.00;;;5.40;99.90;;;;;;5052819;28;20181;-68
2024/01/07 05:03:59;;;;;;;0.00;0.00;;;5.40;99.90;;;;;;5052465;28;20170;-69
2024/01/07 05:06:26;;;;;;;0.00;0.00;;;5.40;99.90;;;;;;5052621;28;20215;-69
2024/01/07 05:08:51;;;;;;;0.00;0.00;;;5.40;99.90;;;;;;5052458;28;20226;-68
2024/01/07 05:11:17;;;;;;;0.13;0.13;;;5.40;99.90;;;;;;5051356;28;20209;-68
2024/01/07 05:13:42;;;;;;;0.00;0.00;;;5.40;99.90;;;;;;5052275;28;20518;-68
2024/01/07 05:16:08;;;;;;;0.00;0.00;;;5.30;99.90;;;;;;5052375;28;20209;-68
2024/01/07 05:18:33;;;;;;;0.45;0.22;;;5.40;99.90;;;;;;5052511;28;20193;-68
2024/01/07 05:20:59;;;;;;;0.20;0.20;;;5.30;99.90;;;;;;5052255;28;20185;-69
2024/01/07 05:23:24;;;;;;;0.00;0.00;;;5.30;99.90;;;;;;5052262;28;20654;-68
2024/01/07 05:25:50;;;;;;;0.00;0.00;;;5.30;99.90;;;;;;5051760;28;20181;-69
2024/01/07 05:28:19;;;;;;;0.00;0.00;;;5.30;99.90;;;;;;5052397;28;20256;-69
2024/01/07 05:30:44;;;;;;;0.00;0.00;;;5.30;99.90;;;;;;5052076;28;20741;-68
2024/01/07 05:33:10;;;;;;;0.00;0.00;;;5.20;99.90;;;;;;5051677;28;20178;-69
2024/01/07 05:35:35;;;;;;;0.00;0.00;;;5.30;99.90;;;;;;5051982;28;20254;-68
2024/01/07 05:38:01;;;;;;;0.00;0.00;;;5.20;99.90;;;;;;5051677;28;20326;-69
2024/01/07 05:40:26;;;;;;;0.00;0.00;;;5.20;99.90;;;;;;5051148;28;20229;-68
2024/01/07 05:42:52;;;;;;;0.00;0.00;;;5.20;99.90;;;;;;5051199;28;20722;-68
2024/01/07 05:45:17;;;;;;;0.13;0.13;;;5.20;99.90;;;;;;5051560;28;20205;-69
2024/01/07 05:47:43;;;;;;;0.00;0.00;;;5.20;99.90;;;;;;5051103;28;20195;-68
2024/01/07 05:50:09;;;;;;;0.30;0.30;;;5.20;99.90;;;;;;5051432;28;20170;-68
2024/01/07 05:52:34;;;;;;;0.30;0.30;;;5.20;99.90;;;;;;5051669;28;20173;-68
2024/01/07 05:55:00;;;;;;;0.00;0.00;;;5.20;99.90;;;;;;5051515;28;20185;-68
2024/01/07 05:57:26;;;;;;;0.17;0.17;;;5.20;99.90;;;;;;5051335;28;20217;-69
2024/01/07 05:59:51;;;;;;;0.00;0.00;;;5.20;99.90;;;;;;5051445;28;20173;-69
2024/01/07 06:02:17;;;;;;;0.45;0.45;;;5.20;99.90;;;;;;5051303;28;20189;-69
2024/01/07 06:04:43;;;;;;;0.00;0.00;;;5.10;99.90;;;;;;5051408;28;20219;-68
2024/01/07 06:07:08;;;;;;;0.00;0.00;;;5.10;99.90;;;;;;5051164;28;20243;-68
2024/01/07 06:09:34;;;;;;;0.00;0.00;;;5.10;99.90;;;;;;5050436;28;20177;-67
2024/01/07 06:12:00;;;;;;;0.00;0.00;;;5.10;99.90;;;;;;5049563;28;20177;-68
2024/01/07 06:14:26;;;;;;;0.00;0.00;;;5.10;99.90;;;;;;5051485;28;20315;-68
2024/01/07 06:16:52;;;;;;;0.43;0.43;;;5.10;99.90;;;;;;5050710;28;20209;-69
2024/01/07 06:19:18;;;;;;;0.00;0.00;;;5.10;99.90;;;;;;5051333;28;21534;-69
2024/01/07 06:21:43;;;;;;;0.00;0.00;;;5.10;99.90;;;;;;5051356;28;20276;-68
2024/01/07 06:24:09;;;;;;;0.00;0.00;;;5.10;99.90;;;;;;5050837;28;20208;-70
2024/01/07 06:26:36;;;;;;;0.00;0.00;;;5.10;99.90;;;;;;5051394;28;20209;-68
2024/01/07 06:29:01;;;;;;;0.00;0.00;;;5.10;99.90;;;;;;5050913;28;20178;-70
2024/01/07 06:31:27;;;;;;;0.00;0.00;;;5.20;99.90;;;;;;5050092;28;20180;-69
2024/01/07 06:33:55;;;;;;;0.00;0.00;;;5.20;99.90;;;;;;5050870;28;20280;-69
2024/01/07 06:36:21;;;;;;;0.00;0.00;;;5.20;99.90;;;;;;5044514;28;20188;-69
2024/01/07 06:38:47;;;;;;;0.00;0.00;;;5.20;99.90;;;;;;5050816;28;20192;-69
2024/01/07 06:41:12;;;;;;;0.00;0.00;;;5.20;99.90;;;;;;5050839;28;20220;-69
2024/01/07 06:43:38;;;;;;;0.00;0.00;;;5.20;99.90;;;;;;5050920;28;20185;-69
2024/01/07 06:46:04;;;;;;;0.00;0.00;;;5.20;99.90;;;;;;5051058;28;20232;-69
2024/01/07 06:48:29;;;;;;;0.08;0.08;;;5.20;99.90;;;;;;5050566;28;20243;-69
2024/01/07 06:50:55;;;;;;;0.00;0.00;;;5.20;99.90;;;;;;5050687;28;20185;-69
2024/01/07 06:53:21;;;;;;;0.10;0.10;;;5.20;99.90;;;;;;5050775;28;20177;-69
2024/01/07 06:55:46;;;;;;;0.00;0.00;;;5.20;99.90;;;;;;5050156;28;20555;-68
2024/01/07 06:58:12;;;;;;;0.00;0.00;;;5.20;99.90;;;;;;5050394;28;20264;-69
2024/01/07 07:00:37;;;;;;;0.00;0.00;;;5.20;99.90;;;;;;5050507;28;20540;-69
2024/01/07 07:03:03;;;;;;;0.00;0.00;;;5.20;99.90;;;;;;5050653;28;20213;-69
2024/01/07 07:05:29;;;;;;;0.00;0.00;;;5.20;99.90;;;;;;5049219;28;20181;-69
2024/01/07 07:07:54;;;;;;;0.00;0.00;;;5.20;99.90;;;;;;5050479;28;20193;-69
2024/01/07 07:10:20;;;;;;;0.00;0.00;;;5.20;99.90;;;;;;5046381;28;20181;-68
2024/01/07 07:12:45;;;;;;;0.00;0.00;;;5.20;99.90;;;;;;5050025;28;20189;-69
2024/01/07 07:15:11;;;;;;;0.00;0.00;;;5.20;99.90;;;;;;5049143;28;20538;-69
2024/01/07 07:17:38;;;;;;;0.00;0.00;;;5.20;99.90;;;;;;5050132;28;20225;-68
2024/01/07 07:20:05;;;;;;;0.00;0.00;;;5.20;99.90;;;;;;5050214;28;20560;-67
2024/01/07 07:22:30;;;;;;;0.00;0.00;;;5.10;99.90;;;;;;5049442;28;20184;-69
2024/01/07 07:24:56;;;;;;;0.00;0.00;;;5.20;99.90;;;;;;5050292;28;20548;-68
2024/01/07 07:27:21;;;;;;;0.00;0.00;;;5.10;99.90;;;;;;5049901;28;20272;-68
2024/01/07 07:29:47;;;;;;;0.00;0.00;;;5.10;99.90;;;;;;5050133;28;20189;-68
2024/01/07 07:32:12;;;;;;;0.00;0.00;;;5.10;99.90;;;;;;5050305;28;20174;-68
2024/01/07 07:34:38;;;;;;;0.00;0.00;;;5.10;99.90;;;;;;5050354;28;20201;-68
2024/01/07 07:37:04;;;;;;;0.20;0.10;;;5.10;99.90;;;;;;5050495;28;20229;-69
2024/01/07 07:39:29;;;;;;;0.00;0.00;;;5.10;99.90;;;;;;5049021;28;20236;-67
2024/01/07 07:41:55;;;;;;;0.00;0.00;;;5.10;99.90;;;;;;5051000;28;20233;-69
2024/01/07 07:44:20;;;;;;;0.10;0.10;;;5.10;99.90;;;;;;5050130;28;20182;-66
2024/01/07 07:46:46;;;;;;;0.00;0.00;;;5.00;99.90;;;;;;5049000;28;20216;-69
2024/01/07 07:49:12;;;;;;;0.00;0.00;;;5.00;99.90;;;;;;5050084;28;20169;-64
2024/01/07 07:51:38;;;;;;;0.00;0.00;;;5.00;99.90;;;;;;5050200;28;20273;-67
2024/01/07 07:54:03;;;;;;;0.00;0.00;;;5.00;99.90;;;;;;5050284;28;20185;-62
2024/01/07 07:56:29;;;;;;;0.00;0.00;;;4.90;99.90;;;;;;5049783;28;20248;-64
2024/01/07 07:58:54;;;;;;;0.45;0.45;;;5.00;99.90;;;;;;5050139;28;20182;-69
2024/01/07 08:01:20;;;;;;;0.00;0.00;;;5.00;99.90;;;;;;5053193;28;20209;-70
2024/01/07 08:03:45;;;;;;;0.00;0.00;;;4.90;99.90;;;;;;5056673;28;20181;-67
2024/01/07 08:06:11;;;;;;;0.00;0.00;;;4.90;99.90;;;;;;5049648;28;20185;-67
2024/01/07 08:08:36;;;;;;;0.00;0.00;;;4.90;99.90;;;;;;5050911;28;20189;-66
2024/01/07 08:11:02;;;;;;;0.00;0.00;;;4.90;99.90;;;;;;5052400;28;20185;-68
2024/01/07 08:13:28;;;;;;;0.00;0.00;;;4.90;99.90;;;;;;5054783;28;20887;-68
2024/01/07 08:15:53;;;;;;;0.00;0.00;;;4.90;99.90;;;;;;5057724;28;20161;-68
2024/01/07 08:18:19;;;;;;;0.00;0.00;;;4.90;99.90;;;;;;5053074;28;20201;-70
2024/01/07 08:20:44;;;;;;;0.00;0.00;;;5.00;99.90;;;;;;5050052;28;20178;-69
2024/01/07 08:23:10;;;;;;;0.05;0.05;;;5.00;99.90;;;;;;5049625;28;20649;-73
2024/01/07 08:25:35;;;;;;;0.00;0.00;;;5.00;99.90;;;;;;5050993;28;20534;-73
2024/01/07 08:28:01;;;;;;;0.20;0.20;;;5.00;99.90;;;;;;5053186;28;20173;-71
2024/01/07 08:30:26;;;;;;;0.40;0.40;;;5.00;99.90;;;;;;5051753;28;20193;-71
2024/01/07 08:32:52;;;;;;;0.00;0.00;;;5.00;99.90;;;;;;5052224;28;20539;-71
2024/01/07 08:35:17;;;;;;;0.22;0.22;;;5.00;99.90;;;;;;5053184;28;20178;-70
2024/01/07 08:37:44;;;;;;;0.30;0.30;;;5.00;99.90;;;;;;5052995;28;20220;-70
2024/01/07 08:40:10;;;;;;;0.00;0.00;;;4.90;99.90;;;;;;5051580;28;20241;-70
2024/01/07 08:42:36;;;;;;;0.05;0.05;;;4.90;99.90;;;;;;5059039;28;20242;-69
2024/01/07 08:45:04;;;;;;;0.05;0.05;;;4.90;99.90;;;;;;5055368;28;20212;-69
2024/01/07 08:47:31;;;;;;;0.00;0.00;;;4.90;99.90;;;;;;5053078;28;20208;-70
2024/01/07 08:49:57;;;;;;;0.00;0.00;;;4.90;99.90;;;;;;5053367;28;20644;-69
2024/01/07 08:52:22;;;;;;;0.00;0.00;;;4.80;99.90;;;;;;5053135;28;20184;-69
2024/01/07 08:54:48;;;;;;;0.00;0.00;;;4.80;99.90;;;;;;5052394;28;20182;-69
2024/01/07 08:57:13;;;;;;;0.00;0.00;;;4.80;99.90;;;;;;5051761;28;20224;-69
2024/01/07 08:59:39;;;;;;;0.00;0.00;;;4.80;99.90;;;;;;5053137;28;20635;-70
2024/01/07 09:02:05;;;;;;;0.00;0.00;;;4.70;99.90;;;;;;5053051;28;20539;-70
2024/01/07 09:04:30;;;;;;;0.00;0.00;;;4.70;99.90;;;;;;5051352;28;20633;-69
2024/01/07 09:06:56;;;;;;;0.00;0.00;;;4.70;99.90;;;;;;5052632;28;20189;-70
2024/01/07 09:09:22;;;;;;;0.32;0.32;;;4.70;99.90;;;;;;5052794;28;20185;-69
2024/01/07 09:11:47;;;;;;;0.00;0.00;;;4.60;99.90;;;;;;5050981;28;20198;-70
2024/01/07 09:14:14;;;;;;;0.00;0.00;;;4.70;99.90;;;;;;5052864;28;20189;-70
2024/01/07 09:16:40;;;;;;;0.00;0.00;;;4.60;99.90;;;;;;5052400;28;20197;-70
2024/01/07 09:19:05;;;;;;;0.00;0.00;;;4.60;99.90;;;;;;5052546;28;20242;-70
2024/01/07 09:21:31;;;;;;;0.17;0.10;;;4.60;99.90;;;;;;5052485;28;20189;-72
2024/01/07 09:23:56;;;;;;;0.00;0.00;;;4.60;99.90;;;;;;5052428;28;20250;-71
2024/01/07 09:26:22;;;;;;;0.00;0.00;;;4.50;99.90;;;;;;5052257;28;20281;-72
2024/01/07 09:28:47;;;;;;;0.00;0.00;;;4.50;99.90;;;;;;5052011;28;20189;-71
2024/01/07 09:31:13;;;;;;;0.00;0.00;;;4.50;99.90;;;;;;5052385;28;20255;-71
2024/01/07 09:33:38;;;;;;;0.00;0.00;;;4.60;99.90;;;;;;5052133;28;20203;-71
2024/01/07 09:36:04;;;;;;;3.97;1.25;;;4.60;99.90;;;;;;5052053;28;20640;-72
2024/01/07 09:38:30;;;;;;;0.00;0.00;;;4.60;99.90;;;;;;5050192;28;20640;-72
2024/01/07 09:40:55;;;;;;;0.00;0.00;;;4.50;99.90;;;;;;5051382;28;20213;-73
2024/01/07 09:43:21;;;;;;;0.00;0.00;;;4.50;99.90;;;;;;5051735;28;20541;-72
2024/01/07 09:45:50;;;;;;;0.00;0.00;;;4.50;99.90;;;;;;5050732;28;20681;-72
2024/01/07 09:48:15;;;;;;;0.13;0.10;;;4.50;99.90;;;;;;5051391;28;20177;-72
2024/01/07 09:50:42;;;;;;;0.00;0.00;;;4.50;99.90;;;;;;5051171;28;20668;-72
2024/01/07 09:53:13;;;;;;;0.00;0.00;;;4.50;99.90;;;;;;5051780;28;20771;-72
2024/01/07 09:56:00;;;;;;;0.00;0.00;;;4.50;99.90;;;;;;5051656;28;20262;-73
2024/01/07 09:58:25;;;;;;;0.00;0.00;;;4.50;99.90;;;;;;5050579;28;20213;-76
2024/01/07 10:00:52;;;;;;;0.10;0.10;;;4.50;99.90;;;;;;5049294;28;20223;-75
2024/01/07 10:03:17;;;;;;;0.10;0.10;;;4.50;99.90;;;;;;5049112;28;20186;-77
2024/01/07 10:05:43;;;;;;;0.00;0.00;;;4.40;99.90;;;;;;5051808;28;20181;-72
2024/01/07 10:08:09;;;;;;;0.08;0.08;;;4.50;99.90;;;;;;5050504;28;20271;-73
2024/01/07 10:10:35;;;;;;;0.00;0.00;;;4.40;99.90;;;;;;5051300;28;20182;-73
2024/01/07 10:13:02;;;;;;;0.00;0.00;;;4.40;99.90;;;;;;5051737;28;20314;-73
2024/01/07 10:15:27;;;;;;;0.00;0.00;;;4.40;99.90;;;;;;5051135;28;20247;-73
2024/01/07 10:18:03;;;;;;;0.05;0.05;;;4.40;99.90;;;;;;5051119;28;20680;-74
2024/01/07 10:20:30;;;;;;;0.00;0.00;;;4.40;99.90;;;;;;5050687;28;20209;-74
2024/01/07 10:22:56;;;;;;;0.00;0.00;;;4.40;99.90;;;;;;5051522;28;20216;-74
2024/01/07 10:25:22;;;;;;;0.00;0.00;;;4.40;99.90;;;;;;5051206;28;20209;-75
2024/01/07 10:27:48;;;;;;;0.00;0.00;;;4.40;99.90;;;;;;5051331;28;20220;-74
2024/01/07 10:30:16;;;;;;;0.00;0.00;;;4.40;99.90;;;;;;5050645;28;20236;-74
2024/01/07 10:32:43;;;;;;;0.00;0.00;;;4.40;99.90;;;;;;5051531;28;20253;-73
2024/01/07 10:35:14;;;;;;;0.00;0.00;;;4.40;99.90;;;;;;5051487;28;20188;-73
2024/01/07 10:37:39;;;;;;;0.00;0.00;;;4.50;99.90;;;;;;5050846;28;20247;-74
2024/01/07 10:40:07;;;;;;;0.00;0.00;;;4.60;99.90;;;;;;5051058;28;20287;-73
2024/01/07 10:42:33;;;;;;;0.13;0.13;;;4.60;99.90;;;;;;5032339;28;20190;-74
2024/01/07 10:45:02;;;;;;;0.00;0.00;;;4.70;99.90;;;;;;5037356;28;20201;-75
2024/01/07 10:47:31;;;;;;;0.00;0.00;;;4.70;99.90;;;;;;5052017;28;20184;-74
2024/01/07 10:49:58;;;;;;;0.38;0.38;;;4.70;99.90;;;;;;5050176;28;20177;-75
2024/01/07 10:52:27;;;;;;;0.08;0.08;;;4.70;99.90;;;;;;5052912;28;20181;-74
2024/01/07 10:54:56;;;;;;;0.00;0.00;;;4.70;99.90;;;;;;5051788;28;20241;-75
2024/01/07 10:57:26;;;;;;;0.00;0.00;;;4.70;99.90;;;;;;5051339;28;20273;-78
2024/01/07 10:59:54;;;;;;;0.00;0.00;;;4.60;99.90;;;;;;5052356;28;20588;-77
2024/01/07 11:02:20;;;;;;;0.00;0.00;;;4.60;99.90;;;;;;5051201;28;20209;-76
2024/01/07 11:05:05;;;;;;;0.03;0.03;;;4.60;99.90;;;;;;5050936;28;20235;-75
2024/01/07 11:07:40;;;;;;;0.00;0.00;;;4.60;99.90;;;;;;5051400;28;20226;-73
2024/01/07 11:10:11;;;;;;;0.00;0.00;;;4.50;99.90;;;;;;5050958;28;20255;-73
2024/01/07 11:12:37;;;;;;;0.00;0.00;;;4.40;99.90;;;;;;5069805;28;20659;-74
2024/01/07 11:15:03;;;;;;;0.00;0.00;;;4.40;99.90;;;;;;5064426;28;20177;-74
2024/01/07 11:17:32;;;;;;;0.00;0.00;;;4.30;99.90;;;;;;5051576;28;20217;-73
2024/01/07 11:20:00;;;;;;;0.00;0.00;;;4.30;99.90;;;;;;5050925;28;20205;-76
2024/01/07 11:22:32;;;;;;;0.00;0.00;;;4.30;99.90;;;;;;5050330;28;20215;-72
2024/01/07 11:25:00;;;;;;;0.00;0.00;;;4.30;99.90;;;;;;5069383;28;20225;-73
2024/01/07 11:27:32;;;;;;;0.00;0.00;;;4.20;99.90;;;;;;5056629;28;20177;-73
2024/01/07 11:30:06;;;;;;;0.00;0.00;;;4.20;99.90;;;;;;5050609;28;20684;-74
2024/01/07 11:32:34;;;;;;;0.00;0.00;;;4.20;99.90;;;;;;5050664;28;20272;-72
2024/01/07 11:35:00;;;;;;;0.00;0.00;;;4.20;99.90;;;;;;5050410;28;20177;-74
2024/01/07 11:37:26;;;;;;;0.00;0.00;;;4.20;99.90;;;;;;5050375;28;20221;-74
2024/01/07 11:39:57;;;;;;;0.00;0.00;;;4.20;99.90;;;;;;5050023;28;20182;-74
2024/01/07 11:42:23;;;;;;;0.00;0.00;;;4.20;99.90;;;;;;5050824;28;20641;-75
2024/01/07 11:44:55;;;;;;;0.00;0.00;;;4.20;99.90;;;;;;5050616;28;20188;-75
2024/01/07 11:47:22;;;;;;;0.00;0.00;;;4.10;99.90;;;;;;5049792;28;20585;-73
2024/01/07 11:49:51;;;;;;;0.00;0.00;;;4.00;99.90;;;;;;5050266;28;20177;-71
2024/01/07 11:52:18;;;;;;;0.15;0.15;;;4.00;99.90;;;;;;5047990;28;20174;-73
2024/01/07 11:54:43;;;;;;;0.13;0.13;;;3.90;99.90;;;;;;5050343;28;20174;-72
2024/01/07 11:57:10;;;;;;;0.00;0.00;;;3.90;99.90;;;;;;5050373;28;20750;-73
2024/01/07 11:59:38;;;;;;;0.00;0.00;;;3.80;99.90;;;;;;5050439;28;20220;-72
2024/01/07 12:02:04;;;;;;;0.00;0.00;;;3.80;99.90;;;;;;5052465;28;20216;-73
2024/01/07 12:04:33;;;;;;;0.43;0.43;;;3.70;99.90;;;;;;5053942;28;20212;-72
2024/01/07 12:07:00;;;;;;;0.00;0.00;;;3.70;99.90;;;;;;5053582;28;20190;-73
2024/01/07 12:09:26;;;;;;;0.10;0.10;;;3.70;99.90;;;;;;5052866;28;20186;-73
2024/01/07 12:11:52;;;;;;;0.00;0.00;;;3.70;99.90;;;;;;5051908;28;20236;-73
2024/01/07 12:14:19;;;;;;;0.00;0.00;;;3.70;99.90;;;;;;5054322;28;20249;-71
2024/01/07 12:16:45;;;;;;;0.00;0.00;;;3.70;99.90;;;;;;5053857;28;20220;-71
2024/01/07 12:19:10;;;;;;;0.08;0.08;;;3.70;99.90;;;;;;5053852;28;20181;-72
2024/01/07 12:21:37;;;;;;;0.00;0.00;;;3.70;99.90;;;;;;5053851;28;20825;-73
2024/01/07 12:24:03;;;;;;;0.00;0.00;;;3.70;99.90;;;;;;5052774;28;20192;-73
2024/01/07 12:26:30;;;;;;;0.05;0.05;;;3.70;99.90;;;;;;5053759;28;20186;-71
2024/01/07 12:29:06;;;;;;;0.00;0.00;;;3.70;99.90;;;;;;5053786;28;20181;-71
2024/01/07 12:31:33;;;;;;;0.08;0.08;;;3.70;99.90;;;;;;5052622;28;20235;-69
2024/01/07 12:33:58;;;;;;;0.25;0.25;;;3.70;99.90;;;;;;5042645;28;20557;-70
2024/01/07 12:36:24;;;;;;;0.30;0.30;;;3.70;99.90;;;;;;5053606;28;20161;-67
2024/01/07 12:38:53;;;;;;;0.00;0.00;;;3.60;99.90;;;;;;5053440;28;20184;-70
2024/01/07 12:41:19;;;;;;;0.00;0.00;;;3.60;99.90;;;;;;5051985;28;20214;-70
2024/01/07 12:43:45;;;;;;;0.00;0.00;;;3.50;99.90;;;;;;5052954;28;20228;-70
2024/01/07 12:46:10;;;;;;;0.00;0.00;;;3.50;99.90;;;;;;5053324;28;20173;-71
2024/01/07 12:48:35;;;;;;;0.00;0.00;;;3.40;99.90;;;;;;5053497;28;20227;-69
2024/01/07 12:51:01;;;;;;;0.05;0.05;;;3.40;99.90;;;;;;5053032;28;20276;-71